Página principal
METAR-TAF:

METAR-TAF

Aeroportos :

Semei, Cazaquistão

latitude: 50-21-05N, longitude: 080-14-04E, altura: 232 m

Observação actual do tempo

O boletim foi feito há 7 horas e 27 minutos, às 17:00 UTC
Vento 4 kt de noroeste
Temperatura 18°C
Humidade 88%
Pressão 1008 hPa
Visibilidade 10 km ou mais
sem nuvens abaixo de 1500 metros e sem cumulonimbus

METAR: UASS 221700Z 32002MPS CAVOK 18/16 Q1008 NOSIG RMK QFE736/0981

Hora: 06:27 (00:27 UTC)

Previsão

O boletim foi feito há 10 horas e 23 minutos, às 14:04 UTC
Previsão válida de 22 às 15 UTC a 22 às 24 UTC
Vento 12 kt de noroeste
Visibilidade 10 km ou mais
Nuvens dispersasa uma altura de 4000 ft
Nuvens fragmentadasa uma altura de 10000 ft

TAF: UASS 221404Z 2215/2224 32006MPS 9999 SCT040 BKN100

Observações e previsões do tempo de mais de 4000 aeroportos (mensagens METAR e TAF).

As estações disponíveis são os pontos amarelos e vermelhos sobre o mapa.

Mova o rato sobre o mapa para ver o nome da estação.

Depois clique no ponto para visualizar as observações e previsões meteorológicas.

Para alterar o mapa : clique nos botões verdes com uma cruz preta para aumentar o zoom; no botão verde com uma pitada de zoom; ou nas setas verdes para mapas adjacentes.


METAR-TAF: